Time;durP1;ratioP1;P1;durP2;ratioP2;P2;SDS_P1;SDS_P2;PMS_P1;PMS_P2;Temp;Humidity;BMP_temperature;BMP_pressure;BME280_temperature;BME280_humidity;BME280_pressure;Samples;Min_cycle;Max_cycle;Signal;HPM_P1;HPM_P2
2022/05/28 00:01:23;;;;;;;10.73;1.92;;;;;;;13.03;100.00;102194.81;5094475;28;20024;-71
2022/05/28 00:03:51;;;;;;;12.38;2.40;;;;;;;13.03;100.00;102195.72;5096999;28;20102;-71
2022/05/28 00:06:19;;;;;;;12.07;2.03;;;;;;;13.07;100.00;102202.88;5102242;28;20493;-70
2022/05/28 00:08:46;;;;;;;14.30;2.03;;;;;;;13.04;100.00;102197.50;5096802;28;20035;-71
2022/05/28 00:11:16;;;;;;;15.63;2.10;;;;;;;13.04;100.00;102192.22;5094082;28;20028;-72
2022/05/28 00:13:41;;;;;;;15.10;2.72;;;;;;;13.09;100.00;102190.59;5097502;28;20387;-71
2022/05/28 00:16:07;;;;;;;14.88;2.03;;;;;;;13.05;100.00;102182.53;5093969;28;20024;-70
2022/05/28 00:18:32;;;;;;;15.13;2.17;;;;;;;13.04;100.00;102184.28;5105977;28;20027;-71
2022/05/28 00:20:58;;;;;;;18.80;2.55;;;;;;;13.07;100.00;102189.66;5093469;28;20051;-70
2022/05/28 00:23:23;;;;;;;16.02;2.15;;;;;;;13.07;100.00;102179.09;5100451;28;20118;-70
2022/05/28 00:25:49;;;;;;;12.02;2.13;;;;;;;13.08;100.00;102183.53;5109199;27;20378;-71
2022/05/28 00:28:15;;;;;;;8.45;1.77;;;;;;;13.04;100.00;102176.38;5111226;28;20035;-71
2022/05/28 00:30:41;;;;;;;19.02;2.78;;;;;;;13.03;100.00;102174.56;5097546;28;20030;-71
2022/05/28 00:33:06;;;;;;;12.52;2.38;;;;;;;13.02;100.00;102178.06;5097353;28;20036;-70
2022/05/28 00:35:32;;;;;;;10.25;2.03;;;;;;;12.98;100.00;102181.47;5093332;28;20032;-70
2022/05/28 00:37:57;;;;;;;26.40;2.53;;;;;;;12.93;100.00;102183.09;5103772;28;20024;-72
2022/05/28 00:40:26;;;;;;;9.68;1.65;;;;;;;12.89;100.00;102192.69;5094642;28;20111;-70
2022/05/28 00:42:56;;;;;;;15.82;2.05;;;;;;;12.85;100.00;102193.44;5092790;28;20039;-70
2022/05/28 00:45:22;;;;;;;18.95;2.40;;;;;;;12.82;100.00;102196.88;5093758;28;20027;-70
2022/05/28 00:47:51;;;;;;;15.65;2.88;;;;;;;12.81;100.00;102197.72;5092644;28;20115;-71
2022/05/28 00:50:18;;;;;;;13.73;2.42;;;;;;;12.80;100.00;102193.31;5094093;28;20047;-71
2022/05/28 00:52:44;;;;;;;19.15;2.13;;;;;;;12.77;100.00;102190.56;5094803;28;20039;-70
2022/05/28 00:55:10;;;;;;;13.55;2.72;;;;;;;12.79;100.00;102185.34;5099948;28;20111;-70
2022/05/28 00:57:39;;;;;;;18.10;2.70;;;;;;;12.76;100.00;102191.41;5107455;28;20188;-70
2022/05/28 01:00:08;;;;;;;17.20;2.35;;;;;;;12.76;100.00;102183.50;5109293;28;20118;-71
2022/05/28 01:02:51;;;;;;;14.20;2.33;;;;;;;12.73;100.00;102185.16;5095718;28;20051;-70
2022/05/28 01:05:39;;;;;;;17.10;2.80;;;;;;;12.70;100.00;102185.09;5083326;28;20020;-70
2022/05/28 01:08:07;;;;;;;13.95;2.47;;;;;;;12.71;100.00;102182.50;5096782;28;20048;-71
2022/05/28 01:10:52;;;;;;;12.35;2.45;;;;;;;12.68;100.00;102192.94;5098141;28;20028;-71
2022/05/28 01:13:30;;;;;;;12.07;2.25;;;;;;;12.66;100.00;102189.38;5098478;28;20024;-70
2022/05/28 01:16:08;;;;;;;14.48;2.13;;;;;;;12.69;100.00;102183.28;5093373;28;20043;-71
2022/05/28 01:18:52;;;;;;;19.58;2.50;;;;;;;12.59;100.00;102188.28;5107516;28;20016;-71
2022/05/28 01:21:47;;;;;;;20.75;2.85;;;;;;;12.59;100.00;102184.78;5089942;28;20747;-71
2022/05/28 01:24:29;;;;;;;20.83;3.78;;;;;;;12.56;100.00;102190.84;5091051;28;20024;-71
2022/05/28 01:27:02;;;;;;;19.58;2.90;;;;;;;12.52;100.00;102185.41;5094908;28;20043;-70
2022/05/28 01:29:35;;;;;;;25.98;3.80;;;;;;;12.53;100.00;102187.22;5090729;28;20051;-70
2022/05/28 01:32:01;;;;;;;22.15;3.10;;;;;;;12.51;100.00;102191.53;5092915;28;20024;-70
2022/05/28 01:34:29;;;;;;;13.07;2.80;;;;;;;12.47;100.00;102183.53;5092983;28;20055;-70
2022/05/28 01:36:56;;;;;;;17.90;3.08;;;;;;;12.44;100.00;102183.44;5091269;28;20027;-71
2022/05/28 01:39:23;;;;;;;13.77;2.35;;;;;;;12.43;100.00;102181.66;5082103;28;20027;-70
2022/05/28 01:41:49;;;;;;;13.68;2.60;;;;;;;12.42;100.00;102178.97;5099756;28;20032;-70
2022/05/28 01:44:16;;;;;;;19.73;3.40;;;;;;;12.38;100.00;102180.59;5113624;28;20016;-70
2022/05/28 01:46:44;;;;;;;18.88;2.83;;;;;;;12.36;100.00;102179.69;5102910;28;20104;-70
2022/05/28 01:49:13;;;;;;;14.27;2.13;;;;;;;12.37;100.00;102172.66;5091951;28;20112;-71
2022/05/28 01:51:44;;;;;;;19.52;2.80;;;;;;;12.34;100.00;102180.47;5094810;28;20368;-71
2022/05/28 01:54:11;;;;;;;15.93;2.10;;;;;;;12.34;100.00;102181.34;5096112;28;20376;-70
2022/05/28 01:56:43;;;;;;;12.60;2.22;;;;;;;12.30;100.00;102180.41;5092859;28;20031;-71
2022/05/28 01:59:14;;;;;;;13.27;2.47;;;;;;;12.32;100.00;102173.41;5106244;28;20443;-70
2022/05/28 02:01:41;;;;;;;11.88;1.88;;;;;;;12.28;100.00;102168.88;5092925;28;20020;-70
2022/05/28 02:04:08;;;;;;;20.08;2.67;;;;;;;12.27;100.00;102176.75;5104928;28;20043;-70
2022/05/28 02:06:35;;;;;;;20.60;3.13;;;;;;;12.31;100.00;102187.44;5086542;28;20064;-71
2022/05/28 02:09:05;;;;;;;16.73;3.25;;;;;;;12.26;100.00;102183.78;5093811;28;20043;-71
2022/05/28 02:12:01;;;;;;;16.55;2.13;;;;;;;12.27;100.00;102182.91;5091438;28;20103;-70
2022/05/28 02:14:32;;;;;;;14.00;2.15;;;;;;;12.24;100.00;102184.59;5092118;28;20051;-70
2022/05/28 02:17:10;;;;;;;18.30;2.65;;;;;;;12.17;100.00;102183.50;5097626;28;20391;-70
2022/05/28 02:20:00;;;;;;;22.92;3.00;;;;;;;12.14;100.00;102181.66;5087458;28;20093;-71
2022/05/28 02:22:47;;;;;;;19.73;2.55;;;;;;;12.11;100.00;102178.91;5090553;28;20055;-70
2022/05/28 02:25:21;;;;;;;19.70;2.53;;;;;;;12.12;100.00;102179.81;5091293;28;20043;-70
2022/05/28 02:27:49;;;;;;;12.23;2.30;;;;;;;12.06;100.00;102169.97;5082632;28;20031;-70
2022/05/28 02:30:15;;;;;;;14.68;1.90;;;;;;;12.07;100.00;102166.47;5091779;28;20063;-70
2022/05/28 02:32:40;;;;;;;19.58;2.40;;;;;;;12.05;100.00;102173.44;5092298;28;20055;-70
2022/05/28 02:35:07;;;;;;;16.48;2.00;;;;;;;12.08;100.00;102178.81;5093701;28;20475;-70
2022/05/28 02:37:32;;;;;;;10.10;2.28;;;;;;;12.05;100.00;102175.19;5096544;28;20055;-70
2022/05/28 02:39:58;;;;;;;19.00;2.95;;;;;;;12.03;100.00;102171.59;5093469;28;20044;-71
2022/05/28 02:42:24;;;;;;;11.20;1.67;;;;;;;12.02;100.00;102162.78;5105189;28;20145;-70
2022/05/28 02:44:50;;;;;;;10.00;1.80;;;;;;;12.02;100.00;102165.44;5104510;28;20023;-70
2022/05/28 02:47:15;;;;;;;12.55;1.55;;;;;;;12.02;100.00;102161.88;5093125;28;20352;-70
2022/05/28 02:49:42;;;;;;;18.92;2.05;;;;;;;12.05;100.00;102164.63;5089814;28;20028;-70
2022/05/28 02:52:08;;;;;;;14.98;1.98;;;;;;;12.06;100.00;102162.03;5110363;28;20032;-70
2022/05/28 02:54:34;;;;;;;11.25;1.70;;;;;;;12.03;100.00;102163.69;5102923;28;20077;-70
2022/05/28 02:56:59;;;;;;;7.50;1.38;;;;;;;12.02;100.00;102162.78;5093717;28;20418;-70
2022/05/28 02:59:25;;;;;;;8.90;1.33;;;;;;;12.02;100.00;102168.06;5096076;28;20035;-70
2022/05/28 03:01:51;;;;;;;7.03;1.27;;;;;;;12.01;100.00;102166.28;5095555;28;20032;-70
2022/05/28 03:04:18;;;;;;;10.50;1.40;;;;;;;12.04;100.00;102163.72;5095528;28;20024;-71
2022/05/28 03:06:43;;;;;;;8.38;1.98;;;;;;;12.04;100.00;102166.34;5101604;28;20497;-70
2022/05/28 03:09:09;;;;;;;10.88;1.92;;;;;;;12.03;100.00;102169.88;5099732;28;20111;-69
2022/05/28 03:11:36;;;;;;;12.85;1.42;;;;;;;12.03;100.00;102168.97;5102816;28;20078;-70
2022/05/28 03:14:02;;;;;;;6.55;1.48;;;;;;;12.02;100.00;102173.34;5097186;28;20032;-71
2022/05/28 03:16:27;;;;;;;7.38;1.48;;;;;;;11.99;100.00;102181.13;5093956;28;20050;-71
2022/05/28 03:18:52;;;;;;;7.20;1.33;;;;;;;11.98;100.00;102176.75;5101685;28;20020;-70
2022/05/28 03:21:18;;;;;;;9.48;1.25;;;;;;;11.97;100.00;102174.94;5099614;28;20098;-71
2022/05/28 03:23:47;;;;;;;9.00;1.30;;;;;;;11.98;100.00;102182.91;5100709;28;20498;-70
2022/05/28 03:26:15;;;;;;;7.85;1.20;;;;;;;11.97;100.00;102180.22;5103382;28;20372;-70
2022/05/28 03:28:41;;;;;;;6.50;1.33;;;;;;;11.96;100.00;102184.59;5098276;28;20047;-71
2022/05/28 03:31:06;;;;;;;8.88;1.00;;;;;;;11.91;100.00;102182.59;5099713;28;20131;-70
2022/05/28 03:33:32;;;;;;;11.45;1.48;;;;;;;11.92;100.00;102187.03;5105211;28;20024;-70
2022/05/28 03:35:58;;;;;;;8.73;1.10;;;;;;;11.90;100.00;102180.84;5108369;28;20019;-70
2022/05/28 03:38:23;;;;;;;8.43;1.13;;;;;;;11.89;100.00;102186.94;5097740;28;20388;-70
2022/05/28 03:40:48;;;;;;;6.20;1.33;;;;;;;11.87;100.00;102184.25;5093118;28;20118;-70
2022/05/28 03:43:14;;;;;;;6.65;1.02;;;;;;;11.85;100.00;102185.06;5094436;28;20472;-70
2022/05/28 03:45:39;;;;;;;6.57;1.23;;;;;;;11.87;100.00;102183.34;5101283;28;20098;-70
2022/05/28 03:48:07;;;;;;;9.60;0.93;;;;;;;11.84;100.00;102183.25;5098574;28;20043;-70
2022/05/28 03:50:34;;;;;;;6.68;1.05;;;;;;;11.84;100.00;102183.25;5094296;28;20503;-71
2022/05/28 03:52:59;;;;;;;7.28;1.00;;;;;;;11.82;100.00;102178.81;5095156;28;20090;-70
2022/05/28 03:55:24;;;;;;;10.85;1.50;;;;;;;11.84;100.00;102185.91;5094342;28;20462;-70
2022/05/28 03:57:50;;;;;;;4.88;1.02;;;;;;;11.81;100.00;102192.88;5101231;28;20028;-70
2022/05/28 04:00:16;;;;;;;14.02;1.60;;;;;;;11.80;100.00;102188.44;5111737;28;20035;-70
2022/05/28 04:02:41;;;;;;;11.85;1.70;;;;;;;11.82;100.00;102185.84;5093329;28;20035;-70
2022/05/28 04:05:07;;;;;;;14.80;1.30;;;;;;;11.81;100.00;102187.59;5093932;28;20160;-71
2022/05/28 04:07:33;;;;;;;8.65;1.13;;;;;;;11.80;100.00;102191.06;5103981;28;20024;-70
2022/05/28 04:09:58;;;;;;;10.23;1.48;;;;;;;11.82;100.00;102201.66;5100460;28;20083;-71
2022/05/28 04:12:23;;;;;;;2.83;0.90;;;;;;;11.80;100.00;102199.00;5091853;28;20032;-70
2022/05/28 04:14:49;;;;;;;9.70;1.20;;;;;;;11.78;100.00;102190.13;5093187;28;20020;-71
2022/05/28 04:17:15;;;;;;;5.50;1.10;;;;;;;11.79;100.00;102193.66;5096309;28;20049;-70
2022/05/28 04:19:40;;;;;;;5.43;1.05;;;;;;;11.84;100.00;102196.44;5103027;28;20055;-70
2022/05/28 04:22:06;;;;;;;7.43;0.95;;;;;;;11.88;100.00;102199.25;5094215;28;20074;-71
2022/05/28 04:24:32;;;;;;;8.10;1.10;;;;;;;11.90;100.00;102197.53;5098816;28;20035;-70
2022/05/28 04:26:57;;;;;;;7.57;1.20;;;;;;;11.91;100.00;102203.69;5094331;28;20024;-71
2022/05/28 04:29:23;;;;;;;8.00;1.42;;;;;;;11.89;100.00;102203.66;5093980;28;20020;-70
2022/05/28 04:31:48;;;;;;;7.22;1.42;;;;;;;11.91;100.00;102207.25;5099969;28;20046;-70
2022/05/28 04:34:13;;;;;;;8.80;1.13;;;;;;;11.92;100.00;102205.50;5103947;28;20150;-70
2022/05/28 04:36:39;;;;;;;7.57;1.42;;;;;;;11.93;100.00;102212.59;5093718;28;20076;-71
2022/05/28 04:39:04;;;;;;;12.48;1.40;;;;;;;11.98;100.00;102208.38;5093898;28;20380;-71
2022/05/28 04:41:29;;;;;;;6.50;1.50;;;;;;;12.00;100.00;102208.44;5103196;28;20062;-72
2022/05/28 04:43:55;;;;;;;6.43;1.13;;;;;;;12.01;100.00;102208.47;5099519;28;20148;-70
2022/05/28 04:46:20;;;;;;;8.85;1.15;;;;;;;12.04;100.00;102216.50;5113263;28;20020;-71
2022/05/28 04:48:46;;;;;;;5.90;0.98;;;;;;;12.03;100.00;102211.16;5093418;28;20139;-71
2022/05/28 04:51:11;;;;;;;7.97;1.15;;;;;;;12.00;100.00;102211.97;5093519;28;20039;-71
2022/05/28 04:53:36;;;;;;;16.23;1.48;;;;;;;12.00;100.00;102209.31;5097042;28;20096;-70
2022/05/28 04:56:02;;;;;;;6.32;1.15;;;;;;;12.02;100.00;102220.84;5093930;28;20062;-71
2022/05/28 04:58:27;;;;;;;11.05;1.20;;;;;;;12.03;100.00;102222.63;5096421;28;20039;-71
2022/05/28 05:00:53;;;;;;;6.65;1.30;;;;;;;12.06;100.00;102216.53;5093755;28;20028;-71
2022/05/28 05:03:19;;;;;;;7.32;1.55;;;;;;;12.12;100.00;102215.00;5091161;28;20031;-72
2022/05/28 05:05:44;;;;;;;6.50;1.15;;;;;;;12.11;100.00;102226.41;5099203;28;20107;-70
2022/05/28 05:08:10;;;;;;;8.52;1.23;;;;;;;12.07;100.00;102219.25;5090385;28;20016;-70
2022/05/28 05:10:35;;;;;;;8.73;1.25;;;;;;;12.17;100.00;102216.88;5094079;28;20101;-70
2022/05/28 05:13:01;;;;;;;7.47;1.30;;;;;;;12.19;100.00;102225.75;5092880;28;20035;-72
2022/05/28 05:15:27;;;;;;;9.98;1.48;;;;;;;12.16;100.00;102225.66;5090452;28;20115;-71
2022/05/28 05:17:52;;;;;;;9.00;1.30;;;;;;;12.18;100.00;102222.25;5091981;28;20105;-72
2022/05/28 05:20:18;;;;;;;11.65;1.63;;;;;;;12.22;100.00;102224.13;5093147;28;20479;-70
2022/05/28 05:22:43;;;;;;;9.23;1.23;;;;;;;12.26;100.00;102231.28;5095234;28;20031;-71
2022/05/28 05:25:11;;;;;;;13.48;1.30;;;;;;;12.30;100.00;102237.53;5086967;28;20028;-69
2022/05/28 05:27:37;;;;;;;8.52;1.67;;;;;;;12.34;100.00;102231.50;5091465;28;20036;-72
2022/05/28 05:30:03;;;;;;;8.25;1.40;;;;;;;12.43;100.00;102238.84;5092705;28;20027;-70
2022/05/28 05:32:28;;;;;;;11.77;1.13;;;;;;;12.53;100.00;102237.38;5092284;28;20055;-69
2022/05/28 05:34:54;;;;;;;10.85;1.40;;;;;;;12.59;100.00;102240.22;5093254;28;20410;-71
2022/05/28 05:37:19;;;;;;;9.63;1.20;;;;;;;12.67;100.00;102244.00;5093218;28;20034;-71
2022/05/28 05:39:45;;;;;;;7.07;1.30;;;;;;;12.69;100.00;102237.00;5091995;28;20024;-70
2022/05/28 05:42:10;;;;;;;9.20;1.23;;;;;;;12.74;100.00;102243.31;5095858;28;20383;-70
2022/05/28 05:44:36;;;;;;;6.75;1.15;;;;;;;12.78;99.53;102247.84;5094960;28;20035;-69
2022/05/28 05:47:02;;;;;;;12.05;1.20;;;;;;;12.79;99.44;102243.44;5094602;28;20028;-70
2022/05/28 05:49:27;;;;;;;7.45;1.33;;;;;;;12.78;99.73;102250.47;5112722;28;20134;-70
2022/05/28 05:51:52;;;;;;;7.10;1.42;;;;;;;12.75;98.19;102242.47;5096081;28;20038;-70
2022/05/28 05:54:19;;;;;;;9.68;1.52;;;;;;;12.77;99.46;102242.53;5096177;28;20028;-70
2022/05/28 05:56:44;;;;;;;6.18;1.10;;;;;;;12.68;97.98;102243.13;5093847;28;20051;-70
2022/05/28 05:59:10;;;;;;;8.77;1.20;;;;;;;12.71;97.62;102243.25;5100376;28;20062;-69
2022/05/28 06:01:35;;;;;;;8.73;1.80;;;;;;;12.73;97.22;102246.81;5102258;28;20032;-69
2022/05/28 06:04:01;;;;;;;9.32;1.08;;;;;;;12.75;98.37;102246.84;5103116;28;20030;-70
2022/05/28 06:06:26;;;;;;;16.00;1.80;;;;;;;12.79;98.49;102246.09;5093866;28;20102;-69
2022/05/28 06:08:52;;;;;;;7.70;1.15;;;;;;;12.82;98.02;102249.72;5113405;28;20032;-70
2022/05/28 06:11:18;;;;;;;6.65;0.98;;;;;;;12.96;99.15;102257.16;5096433;28;20020;-70
2022/05/28 06:13:43;;;;;;;8.82;1.23;;;;;;;13.01;99.90;102252.91;5092680;28;20032;-69
2022/05/28 06:16:09;;;;;;;7.75;1.50;;;;;;;13.06;99.17;102256.59;5086021;28;20024;-70
2022/05/28 06:18:34;;;;;;;13.43;1.60;;;;;;;13.13;99.41;102261.19;5097807;28;20035;-70
2022/05/28 06:21:01;;;;;;;12.23;1.85;;;;;;;13.19;100.00;102254.31;5112536;28;20024;-70
2022/05/28 06:23:27;;;;;;;13.55;1.80;;;;;;;13.28;100.00;102260.75;5101937;28;20020;-69
2022/05/28 06:25:53;;;;;;;12.02;1.60;;;;;;;13.30;100.00;102264.31;5092661;28;20103;-69
2022/05/28 06:28:19;;;;;;;7.65;1.30;;;;;;;13.31;99.93;102271.38;5091658;28;20125;-70
2022/05/28 06:30:45;;;;;;;10.68;1.35;;;;;;;13.31;98.81;102270.50;5103477;28;20038;-70
2022/05/28 06:33:11;;;;;;;9.23;0.95;;;;;;;13.26;98.80;102269.47;5116626;28;20027;-69
2022/05/28 06:35:37;;;;;;;10.90;1.52;;;;;;;13.17;97.63;102267.44;5105615;28;20039;-69
2022/05/28 06:38:03;;;;;;;5.50;1.77;;;;;;;13.07;98.37;102265.41;5093322;28;20028;-70
2022/05/28 06:40:29;;;;;;;10.95;1.30;;;;;;;13.01;98.98;102271.41;5096193;28;20441;-69
2022/05/28 06:42:57;;;;;;;12.57;1.67;;;;;;;13.02;99.54;102273.19;5101275;28;20033;-69
2022/05/28 06:45:23;;;;;;;7.65;1.45;;;;;;;12.96;99.00;102273.03;5113544;28;20027;-70
2022/05/28 06:47:49;;;;;;;15.85;1.92;;;;;;;13.05;99.73;102270.66;5107611;28;20079;-70
2022/05/28 06:53:02;;;;;;;6.03;1.10;;;;;;;13.24;99.39;102268.53;5104859;28;20396;-70
2022/05/28 06:55:27;;;;;;;8.35;1.20;;;;;;;13.33;97.46;102275.00;5095665;28;20028;-70
2022/05/28 06:57:53;;;;;;;8.90;1.25;;;;;;;13.31;96.71;102279.31;5103774;28;20112;-70
2022/05/28 07:00:19;;;;;;;12.93;2.25;;;;;;;13.35;97.01;102275.03;5095871;28;20108;-69
2022/05/28 07:02:44;;;;;;;10.77;1.50;;;;;;;13.34;98.08;102283.81;5112469;28;20034;-70
2022/05/28 07:05:12;;;;;;;10.75;1.73;;;;;;;13.39;98.80;102273.38;5109000;28;20019;-70
2022/05/28 07:07:37;;;;;;;12.48;2.15;;;;;;;13.45;98.70;102287.66;5105979;28;20036;-68
2022/05/28 07:10:04;;;;;;;13.35;1.42;;;;;;;13.41;97.36;102280.50;5095634;28;20028;-70
2022/05/28 07:12:29;;;;;;;12.48;1.50;;;;;;;13.37;96.83;102281.28;5106419;28;20055;-70
2022/05/28 07:14:54;;;;;;;9.05;1.58;;;;;;;13.35;96.78;102277.66;5093001;28;20066;-70
2022/05/28 07:17:20;;;;;;;12.05;1.83;;;;;;;13.40;97.45;102284.03;5091102;28;20476;-69
2022/05/28 07:19:46;;;;;;;14.10;1.83;;;;;;;13.41;95.59;102283.16;5093990;28;20085;-69
2022/05/28 07:22:11;;;;;;;5.63;1.73;;;;;;;13.44;95.90;102287.63;5095940;28;20471;-70
2022/05/28 07:24:36;;;;;;;6.90;1.67;;;;;;;13.56;95.47;102292.38;5092866;28;20039;-70
2022/05/28 07:27:02;;;;;;;13.88;1.83;;;;;;;13.66;94.63;102289.13;5099626;28;20019;-70
2022/05/28 07:29:27;;;;;;;6.38;1.27;;;;;;;13.60;93.77;102288.97;5098879;28;20092;-70
2022/05/28 07:31:52;;;;;;;7.63;1.60;;;;;;;13.67;93.77;102288.25;5096176;28;20055;-68
2022/05/28 07:34:18;;;;;;;7.28;1.58;;;;;;;13.79;93.34;102293.88;5109702;28;20055;-70
2022/05/28 07:36:43;;;;;;;7.75;1.80;;;;;;;13.77;95.08;102292.97;5111124;28;20080;-71
2022/05/28 07:39:09;;;;;;;10.55;1.83;;;;;;;13.82;94.69;102291.34;5108954;28;20076;-71
2022/05/28 07:41:36;;;;;;;12.07;1.95;;;;;;;13.88;92.77;102300.28;5107012;28;20487;-70
2022/05/28 07:44:02;;;;;;;9.18;1.55;;;;;;;13.89;90.77;102292.41;5096157;28;20016;-71
2022/05/28 07:46:30;;;;;;;12.38;1.83;;;;;;;13.86;92.34;102296.69;5094697;28;20036;-71
2022/05/28 07:48:57;;;;;;;12.60;1.65;;;;;;;13.74;91.43;102298.19;5094304;28;20506;-71
2022/05/28 07:51:22;;;;;;;7.55;1.42;;;;;;;13.76;91.60;102295.56;5095170;28;20028;-70
2022/05/28 07:53:48;;;;;;;8.48;1.92;;;;;;;13.70;91.21;102298.94;5100691;28;20536;-69
2022/05/28 07:56:14;;;;;;;11.07;2.25;;;;;;;13.61;93.30;102301.34;5095071;28;20039;-71
2022/05/28 07:58:40;;;;;;;15.65;3.10;;;;;;;13.59;93.46;102298.66;5094898;28;20028;-71
2022/05/28 08:01:06;;;;;;;11.75;1.48;;;;;;;13.63;92.53;102299.63;5094993;28;20031;-71
2022/05/28 08:03:32;;;;;;;8.88;1.50;;;;;;;13.58;93.02;102298.59;5094742;28;20127;-70
2022/05/28 08:05:58;;;;;;;11.68;1.88;;;;;;;13.53;89.51;102287.91;5095863;27;20390;-71
2022/05/28 08:08:26;;;;;;;9.40;1.48;;;;;;;13.65;88.27;102289.97;5099237;28;20037;-70
2022/05/28 08:10:52;;;;;;;8.80;1.20;;;;;;;13.80;88.91;102290.38;5093784;28;20031;-70
2022/05/28 08:13:20;;;;;;;7.68;1.80;;;;;;;14.03;89.54;102284.81;5093586;28;20387;-68
2022/05/28 08:15:48;;;;;;;11.98;1.33;;;;;;;14.16;86.74;102291.28;5089560;28;20032;-66
2022/05/28 08:18:15;;;;;;;9.85;1.63;;;;;;;14.27;83.65;102283.59;5095791;28;20055;-67
2022/05/28 08:23:25;;;;;;;7.18;1.10;;;;;;;14.43;81.81;102280.50;5099221;28;20407;-70
2022/05/28 08:25:50;;;;;;;14.40;1.30;;;;;;;14.54;81.18;102287.78;5094143;28;20024;-70
2022/05/28 08:28:18;;;;;;;9.00;1.52;;;;;;;14.61;82.65;102295.91;5093404;28;20093;-70
2022/05/28 08:30:44;;;;;;;29.17;3.25;;;;;;;14.69;82.92;102287.28;5092678;28;20054;-72
2022/05/28 08:33:11;;;;;;;8.82;1.58;;;;;;;14.91;83.91;102294.84;5092748;28;20039;-71
2022/05/28 08:35:38;;;;;;;12.05;1.58;;;;;;;15.16;83.02;102295.38;5094238;28;20025;-72
2022/05/28 08:38:06;;;;;;;25.88;3.33;;;;;;;15.44;82.51;102294.19;5092941;28;20028;-71
2022/05/28 08:40:37;;;;;;;11.50;1.40;;;;;;;15.61;81.71;102298.91;5086831;28;20028;-72
2022/05/28 08:43:03;;;;;;;8.30;1.60;;;;;;;15.64;80.36;102305.19;5111037;28;20058;-72
2022/05/28 08:45:32;;;;;;;6.97;1.60;;;;;;;15.56;79.72;102314.75;5101147;28;20056;-71
2022/05/28 08:48:00;;;;;;;8.93;1.45;;;;;;;15.42;80.25;102301.19;5093642;28;20052;-71
2022/05/28 08:50:26;;;;;;;13.45;2.05;;;;;;;15.19;76.91;102314.00;5093263;28;20024;-71
2022/05/28 08:53:05;;;;;;;7.57;1.83;;;;;;;15.06;77.88;102311.97;5090213;28;20035;-71
2022/05/28 08:55:36;;;;;;;10.95;1.58;;;;;;;15.09;81.36;102310.25;5096669;28;20483;-71
2022/05/28 08:58:07;;;;;;;11.38;2.03;;;;;;;15.09;79.02;102310.25;5110325;28;20023;-71
2022/05/28 09:00:41;;;;;;;8.40;1.80;;;;;;;15.28;80.78;102303.56;5096015;28;20035;-71
2022/05/28 09:03:11;;;;;;;12.32;1.80;;;;;;;15.30;76.93;102311.56;5114459;28;20031;-71
2022/05/28 09:05:57;;;;;;;7.95;1.30;;;;;;;15.33;76.77;102314.31;5093066;28;20467;-72
2022/05/28 09:08:40;;;;;;;9.25;1.67;;;;;;;15.28;75.60;102310.66;5094880;28;20127;-71
2022/05/28 09:11:13;;;;;;;6.15;1.70;;;;;;;15.34;76.01;102310.75;5101185;28;20027;-70
2022/05/28 09:13:43;;;;;;;9.60;1.70;;;;;;;15.27;74.14;102317.69;5094637;28;20023;-70
2022/05/28 09:16:35;;;;;;;7.28;1.75;;;;;;;15.23;73.40;102318.50;5092683;28;20020;-70
2022/05/28 09:19:09;;;;;;;6.25;2.15;;;;;;;15.19;73.85;102319.28;5090466;28;20468;-70
2022/05/28 09:21:36;;;;;;;9.55;1.67;;;;;;;15.04;77.40;102317.22;5092232;28;20032;-70
2022/05/28 09:24:06;;;;;;;10.07;2.17;;;;;;;15.38;79.92;102315.25;5093853;28;20024;-70
2022/05/28 09:26:44;;;;;;;15.88;2.08;;;;;;;15.46;75.01;102315.44;5101711;28;20031;-70
2022/05/28 09:29:33;;;;;;;6.50;1.30;;;;;;;15.46;73.19;102312.78;5105643;27;20382;-70
2022/05/28 09:32:20;;;;;;;7.32;1.25;;;;;;;15.51;71.07;102308.47;5093028;28;20535;-70
2022/05/28 09:34:48;;;;;;;7.63;1.85;;;;;;;15.49;71.62;102311.09;5084827;28;20028;-70
2022/05/28 09:37:32;;;;;;;8.35;1.33;;;;;;;15.27;68.75;102306.19;5109747;28;20502;-69
2022/05/28 09:40:32;;;;;;;6.88;1.50;;;;;;;15.26;69.10;102300.03;5099968;28;20024;-69
2022/05/28 09:43:05;;;;;;;7.28;1.38;;;;;;;15.49;69.65;102305.78;5084724;28;20449;-72
2022/05/28 09:45:34;;;;;;;;;;;;;;;15.56;65.30;102305.88;5092857;28;20020;-73
2022/05/28 09:48:00;;;;;;;7.65;1.42;;;;;;;15.84;65.54;102297.63;5092862;28;19931;-68
2022/05/28 09:50:29;;;;;;;7.68;1.15;;;;;;;16.11;67.76;102309.59;5093244;28;20028;-67
2022/05/28 09:55:57;;;;;;;8.48;1.63;;;;;;;16.06;63.88;102303.31;5090602;28;20079;-67
2022/05/28 09:58:28;;;;;;;9.93;1.42;;;;;;;16.11;65.62;102304.28;5091258;28;20032;-68
2022/05/28 10:01:07;;;;;;;7.03;1.80;;;;;;;16.17;65.64;102301.72;5103867;28;20458;-67
2022/05/28 10:06:19;;;;;;;7.78;1.38;;;;;;;16.28;62.18;102293.06;5109834;28;20062;-67
2022/05/28 10:08:44;;;;;;;7.70;1.27;;;;;;;16.45;61.96;102296.84;5097160;28;20024;-68
2022/05/28 10:11:14;;;;;;;8.40;1.42;;;;;;;16.39;61.06;102298.53;5098425;28;20034;-69
2022/05/28 10:13:44;;;;;;;8.80;1.80;;;;;;;16.74;64.75;102304.38;5106502;28;20091;-69
2022/05/28 10:16:11;;;;;;;6.55;1.40;;;;;;;16.63;61.40;102295.34;5096866;28;20035;-67
2022/05/28 10:18:40;;;;;;;28.88;2.78;;;;;;;16.63;64.28;102313.94;5093154;28;20102;-68
2022/05/28 10:21:13;;;;;;;12.48;1.80;;;;;;;16.41;65.68;102308.31;5096718;28;20368;-68
2022/05/28 10:23:41;;;;;;;8.52;1.73;;;;;;;16.57;64.25;102309.44;5106938;28;20115;-68
2022/05/28 10:26:17;;;;;;;6.28;1.40;;;;;;;16.58;59.83;102302.38;5096023;28;20387;-69
2022/05/28 10:28:55;;;;;;;7.47;1.30;;;;;;;16.82;62.32;102292.09;5094540;28;20024;-69
2022/05/28 10:31:30;;;;;;;9.45;1.50;;;;;;;16.92;60.50;102297.59;5096299;28;20036;-69
2022/05/28 10:33:56;;;;;;;7.57;1.35;;;;;;;17.17;59.60;102283.72;5101326;28;20043;-68
2022/05/28 10:36:28;;;;;;;11.07;2.00;;;;;;;17.12;59.07;102298.72;5096201;28;20024;-69
2022/05/28 10:39:08;;;;;;;9.40;1.90;;;;;;;16.85;59.10;102291.25;5098688;28;20059;-68
2022/05/28 10:41:35;;;;;;;8.05;1.38;;;;;;;16.67;59.12;102286.53;5093204;28;20058;-69
2022/05/28 10:44:00;;;;;;;6.32;1.20;;;;;;;16.78;56.83;102294.66;5105926;28;20414;-69
2022/05/28 10:46:55;;;;;;;8.80;1.40;;;;;;;17.03;57.72;102291.50;5095107;28;20034;-69
2022/05/28 10:49:51;;;;;;;5.50;1.40;;;;;;;17.14;58.08;102294.31;5106934;28;20491;-70
2022/05/28 10:52:53;;;;;;;12.63;1.50;;;;;;;17.15;57.58;102300.53;5094461;28;20028;-73
2022/05/28 10:56:04;;;;;;;7.80;1.27;;;;;;;17.27;63.84;102299.78;5092475;28;20036;-72
2022/05/28 10:58:55;;;;;;;6.15;1.50;;;;;;;17.53;59.55;102300.09;5095965;28;20016;-70
2022/05/28 11:01:24;;;;;;;10.38;1.55;;;;;;;17.45;58.30;102288.47;5100831;28;20027;-71
2022/05/28 11:04:11;;;;;;;8.65;1.67;;;;;;;17.46;57.43;102300.91;5090740;28;20020;-72
2022/05/28 11:06:48;;;;;;;11.35;1.67;;;;;;;17.72;58.84;102298.53;5095207;28;20028;-68
2022/05/28 11:09:27;;;;;;;9.65;1.73;;;;;;;17.52;57.12;102296.53;5086333;28;20029;-68
2022/05/28 11:12:30;;;;;;;10.05;1.58;;;;;;;17.24;59.71;102299.75;5095571;28;20059;-67
2022/05/28 11:15:12;;;;;;;8.82;1.33;;;;;;;17.01;60.25;102292.34;5094108;28;20023;-68
2022/05/28 11:17:58;;;;;;;9.30;1.48;;;;;;;16.76;61.33;102293.78;5109007;28;20035;-67
2022/05/28 11:20:44;;;;;;;4.78;1.17;;;;;;;16.83;61.30;102283.25;5107062;27;20499;-67
2022/05/28 11:23:31;;;;;;;9.77;2.05;;;;;;;17.13;58.73;102281.91;5092432;28;20020;-72
2022/05/28 11:26:02;;;;;;;3.95;1.13;;;;;;;17.27;58.94;102289.13;5111933;28;20020;-71
2022/05/28 11:28:30;;;;;;;12.20;1.95;;;;;;;17.28;58.95;102294.50;5115861;28;20027;-72
2022/05/28 11:31:04;;;;;;;8.10;1.95;;;;;;;17.38;58.65;102281.28;5099770;28;20501;-71
2022/05/28 11:33:40;;;;;;;6.40;1.17;;;;;;;17.83;58.25;102274.66;5093901;28;20021;-72
2022/05/28 11:36:09;;;;;;;11.52;1.90;;;;;;;17.86;57.73;102280.91;5094742;28;20300;-70
2022/05/28 11:38:51;;;;;;;11.52;1.60;;;;;;;18.30;57.87;102290.19;5090232;28;20398;-70